sensor_id;sensor_type;location;lat;lon;timestamp;P1;durP1;ratioP1;P2;durP2;ratioP2
67164;SDS011;54093;50.014;19.984;2023-11-19T00:03:53;13.35;;;8.10;;
67164;SDS011;54093;50.014;19.984;2023-11-19T00:13:14;10.40;;;6.50;;
67164;SDS011;54093;50.014;19.984;2023-11-19T00:22:35;10.95;;;7.93;;
67164;SDS011;54093;50.014;19.984;2023-11-19T00:31:56;7.78;;;5.63;;
67164;SDS011;54093;50.014;19.984;2023-11-19T00:41:17;9.38;;;7.85;;
67164;SDS011;54093;50.014;19.984;2023-11-19T00:50:38;8.80;;;7.65;;
67164;SDS011;54093;50.014;19.984;2023-11-19T01:00:03;6.72;;;5.68;;
67164;SDS011;54093;50.014;19.984;2023-11-19T01:09:35;6.20;;;5.65;;
67164;SDS011;54093;50.014;19.984;2023-11-19T01:18:56;14.98;;;8.50;;
67164;SDS011;54093;50.014;19.984;2023-11-19T01:28:17;5.80;;;4.97;;
67164;SDS011;54093;50.014;19.984;2023-11-19T01:37:39;7.85;;;7.07;;
67164;SDS011;54093;50.014;19.984;2023-11-19T01:47:00;16.02;;;7.85;;
67164;SDS011;54093;50.014;19.984;2023-11-19T01:56:23;9.13;;;4.75;;
67164;SDS011;54093;50.014;19.984;2023-11-19T02:05:46;7.30;;;5.95;;
67164;SDS011;54093;50.014;19.984;2023-11-19T02:15:09;5.00;;;4.60;;
67164;SDS011;54093;50.014;19.984;2023-11-19T02:24:31;7.75;;;5.28;;
67164;SDS011;54093;50.014;19.984;2023-11-19T02:33:54;10.50;;;5.80;;
67164;SDS011;54093;50.014;19.984;2023-11-19T02:43:15;7.85;;;6.35;;
67164;SDS011;54093;50.014;19.984;2023-11-19T02:52:36;8.18;;;7.15;;
67164;SDS011;54093;50.014;19.984;2023-11-19T03:01:58;7.43;;;5.85;;
67164;SDS011;54093;50.014;19.984;2023-11-19T03:11:20;8.75;;;7.72;;
67164;SDS011;54093;50.014;19.984;2023-11-19T03:20:41;8.65;;;5.28;;
67164;SDS011;54093;50.014;19.984;2023-11-19T03:30:02;10.27;;;8.15;;
67164;SDS011;54093;50.014;19.984;2023-11-19T03:39:25;7.13;;;6.53;;
67164;SDS011;54093;50.014;19.984;2023-11-19T03:48:47;5.80;;;5.22;;
67164;SDS011;54093;50.014;19.984;2023-11-19T03:58:09;7.30;;;4.85;;
67164;SDS011;54093;50.014;19.984;2023-11-19T04:16:56;16.15;;;11.02;;
67164;SDS011;54093;50.014;19.984;2023-11-19T04:26:17;10.07;;;6.53;;
67164;SDS011;54093;50.014;19.984;2023-11-19T04:35:38;8.93;;;6.35;;
67164;SDS011;54093;50.014;19.984;2023-11-19T04:44:59;20.58;;;10.82;;
67164;SDS011;54093;50.014;19.984;2023-11-19T04:54:20;19.95;;;11.45;;
67164;SDS011;54093;50.014;19.984;2023-11-19T05:03:42;10.93;;;7.28;;
67164;SDS011;54093;50.014;19.984;2023-11-19T05:13:03;9.98;;;7.03;;
67164;SDS011;54093;50.014;19.984;2023-11-19T05:22:24;14.63;;;7.70;;
67164;SDS011;54093;50.014;19.984;2023-11-19T05:31:46;12.90;;;8.13;;
67164;SDS011;54093;50.014;19.984;2023-11-19T05:41:08;10.35;;;8.63;;
67164;SDS011;54093;50.014;19.984;2023-11-19T05:50:29;13.10;;;8.45;;
67164;SDS011;54093;50.014;19.984;2023-11-19T05:59:50;15.23;;;9.30;;
67164;SDS011;54093;50.014;19.984;2023-11-19T06:09:11;9.73;;;6.25;;
67164;SDS011;54093;50.014;19.984;2023-11-19T06:18:33;12.52;;;8.40;;
67164;SDS011;54093;50.014;19.984;2023-11-19T06:27:54;10.65;;;7.20;;
67164;SDS011;54093;50.014;19.984;2023-11-19T06:37:17;11.85;;;9.13;;
67164;SDS011;54093;50.014;19.984;2023-11-19T06:46:49;9.68;;;7.07;;
67164;SDS011;54093;50.014;19.984;2023-11-19T06:56:23;5.68;;;5.25;;
67164;SDS011;54093;50.014;19.984;2023-11-19T07:05:44;14.73;;;9.73;;
67164;SDS011;54093;50.014;19.984;2023-11-19T07:15:06;10.48;;;7.10;;
67164;SDS011;54093;50.014;19.984;2023-11-19T07:24:27;9.95;;;8.23;;
67164;SDS011;54093;50.014;19.984;2023-11-19T07:33:49;8.65;;;6.32;;
67164;SDS011;54093;50.014;19.984;2023-11-19T07:43:13;10.23;;;5.97;;
67164;SDS011;54093;50.014;19.984;2023-11-19T07:52:40;4.70;;;4.35;;
67164;SDS011;54093;50.014;19.984;2023-11-19T08:02:20;10.65;;;6.95;;
67164;SDS011;54093;50.014;19.984;2023-11-19T08:12:16;6.15;;;5.32;;
67164;SDS011;54093;50.014;19.984;2023-11-19T08:21:49;9.50;;;6.75;;
67164;SDS011;54093;50.014;19.984;2023-11-19T08:31:28;6.97;;;5.43;;
67164;SDS011;54093;50.014;19.984;2023-11-19T08:41:26;6.93;;;3.67;;
67164;SDS011;54093;50.014;19.984;2023-11-19T09:10:35;4.57;;;4.00;;
67164;SDS011;54093;50.014;19.984;2023-11-19T09:19:57;9.98;;;5.78;;
67164;SDS011;54093;50.014;19.984;2023-11-19T09:29:18;5.07;;;4.57;;
67164;SDS011;54093;50.014;19.984;2023-11-19T09:39:07;4.57;;;4.10;;
67164;SDS011;54093;50.014;19.984;2023-11-19T09:48:35;5.25;;;4.53;;
67164;SDS011;54093;50.014;19.984;2023-11-19T09:57:58;5.10;;;4.63;;
67164;SDS011;54093;50.014;19.984;2023-11-19T10:07:31;3.75;;;3.45;;
67164;SDS011;54093;50.014;19.984;2023-11-19T10:17:02;6.45;;;5.05;;
67164;SDS011;54093;50.014;19.984;2023-11-19T10:26:27;5.50;;;4.57;;
67164;SDS011;54093;50.014;19.984;2023-11-19T10:35:52;6.28;;;5.00;;
67164;SDS011;54093;50.014;19.984;2023-11-19T10:45:23;4.97;;;4.57;;
67164;SDS011;54093;50.014;19.984;2023-11-19T10:54:45;4.05;;;3.75;;
67164;SDS011;54093;50.014;19.984;2023-11-19T11:04:19;5.45;;;4.90;;
67164;SDS011;54093;50.014;19.984;2023-11-19T11:13:44;3.20;;;3.00;;
67164;SDS011;54093;50.014;19.984;2023-11-19T11:43:46;2.95;;;2.83;;
67164;SDS011;54093;50.014;19.984;2023-11-19T11:53:13;5.90;;;3.10;;
67164;SDS011;54093;50.014;19.984;2023-11-19T12:02:35;3.05;;;2.85;;
67164;SDS011;54093;50.014;19.984;2023-11-19T12:12:22;3.58;;;3.28;;
67164;SDS011;54093;50.014;19.984;2023-11-19T12:21:53;3.55;;;3.28;;
67164;SDS011;54093;50.014;19.984;2023-11-19T12:31:24;4.10;;;3.67;;
67164;SDS011;54093;50.014;19.984;2023-11-19T12:41:10;3.28;;;2.65;;
67164;SDS011;54093;50.014;19.984;2023-11-19T13:00:20;2.35;;;2.25;;
67164;SDS011;54093;50.014;19.984;2023-11-19T13:09:43;2.22;;;2.13;;
67164;SDS011;54093;50.014;19.984;2023-11-19T13:19:04;2.85;;;2.65;;
67164;SDS011;54093;50.014;19.984;2023-11-19T13:28:34;3.00;;;2.80;;
67164;SDS011;54093;50.014;19.984;2023-11-19T13:37:59;2.13;;;2.03;;
67164;SDS011;54093;50.014;19.984;2023-11-19T13:47:20;2.63;;;2.53;;
67164;SDS011;54093;50.014;19.984;2023-11-19T13:56:41;2.95;;;2.78;;
67164;SDS011;54093;50.014;19.984;2023-11-19T14:06:02;4.32;;;3.90;;
67164;SDS011;54093;50.014;19.984;2023-11-19T14:15:23;3.42;;;2.75;;
67164;SDS011;54093;50.014;19.984;2023-11-19T14:24:44;2.92;;;2.72;;
67164;SDS011;54093;50.014;19.984;2023-11-19T14:34:05;4.93;;;4.28;;
67164;SDS011;54093;50.014;19.984;2023-11-19T14:43:29;5.72;;;3.10;;
67164;SDS011;54093;50.014;19.984;2023-11-19T14:52:50;8.85;;;5.68;;
67164;SDS011;54093;50.014;19.984;2023-11-19T15:02:11;9.93;;;6.70;;
67164;SDS011;54093;50.014;19.984;2023-11-19T15:11:35;5.30;;;4.82;;
67164;SDS011;54093;50.014;19.984;2023-11-19T15:20:56;7.18;;;6.45;;
67164;SDS011;54093;50.014;19.984;2023-11-19T15:30:18;6.97;;;6.32;;
67164;SDS011;54093;50.014;19.984;2023-11-19T15:39:39;4.93;;;4.60;;
67164;SDS011;54093;50.014;19.984;2023-11-19T15:49:00;10.82;;;8.73;;
67164;SDS011;54093;50.014;19.984;2023-11-19T15:58:21;6.25;;;5.15;;
67164;SDS011;54093;50.014;19.984;2023-11-19T16:07:45;7.15;;;5.57;;
67164;SDS011;54093;50.014;19.984;2023-11-19T16:17:06;7.43;;;5.95;;
67164;SDS011;54093;50.014;19.984;2023-11-19T16:26:28;6.10;;;5.47;;
67164;SDS011;54093;50.014;19.984;2023-11-19T16:35:51;9.70;;;7.13;;
67164;SDS011;54093;50.014;19.984;2023-11-19T16:45:14;5.03;;;4.53;;
67164;SDS011;54093;50.014;19.984;2023-11-19T16:54:35;12.40;;;7.50;;
67164;SDS011;54093;50.014;19.984;2023-11-19T17:03:58;8.15;;;6.00;;
67164;SDS011;54093;50.014;19.984;2023-11-19T17:13:21;6.97;;;6.10;;
67164;SDS011;54093;50.014;19.984;2023-11-19T17:22:43;7.90;;;6.47;;
67164;SDS011;54093;50.014;19.984;2023-11-19T17:32:05;14.13;;;9.13;;
67164;SDS011;54093;50.014;19.984;2023-11-19T17:41:27;8.20;;;6.90;;
67164;SDS011;54093;50.014;19.984;2023-11-19T17:50:51;7.25;;;6.13;;
67164;SDS011;54093;50.014;19.984;2023-11-19T18:00:16;9.70;;;7.32;;
67164;SDS011;54093;50.014;19.984;2023-11-19T18:09:38;12.57;;;8.00;;
67164;SDS011;54093;50.014;19.984;2023-11-19T18:19:00;9.85;;;6.75;;
67164;SDS011;54093;50.014;19.984;2023-11-19T18:28:22;9.93;;;6.70;;
67164;SDS011;54093;50.014;19.984;2023-11-19T18:37:46;13.75;;;7.70;;
67164;SDS011;54093;50.014;19.984;2023-11-19T18:47:07;11.25;;;8.30;;
67164;SDS011;54093;50.014;19.984;2023-11-19T18:56:29;8.73;;;4.82;;
67164;SDS011;54093;50.014;19.984;2023-11-19T19:05:52;5.47;;;4.97;;
67164;SDS011;54093;50.014;19.984;2023-11-19T19:15:15;7.63;;;5.00;;
67164;SDS011;54093;50.014;19.984;2023-11-19T19:24:38;9.05;;;5.25;;
67164;SDS011;54093;50.014;19.984;2023-11-19T19:34:00;4.82;;;3.80;;
67164;SDS011;54093;50.014;19.984;2023-11-19T19:43:24;5.85;;;5.22;;
67164;SDS011;54093;50.014;19.984;2023-11-19T19:52:46;5.50;;;4.05;;
67164;SDS011;54093;50.014;19.984;2023-11-19T20:02:17;5.22;;;3.40;;
67164;SDS011;54093;50.014;19.984;2023-11-19T20:11:39;3.38;;;2.97;;
67164;SDS011;54093;50.014;19.984;2023-11-19T20:21:04;5.80;;;3.78;;
67164;SDS011;54093;50.014;19.984;2023-11-19T20:30:55;7.78;;;3.72;;
67164;SDS011;54093;50.014;19.984;2023-11-19T20:40:24;5.30;;;2.47;;
67164;SDS011;54093;50.014;19.984;2023-11-19T20:49:49;3.15;;;2.80;;
67164;SDS011;54093;50.014;19.984;2023-11-19T21:08:39;3.97;;;3.43;;
67164;SDS011;54093;50.014;19.984;2023-11-19T21:18:04;2.30;;;2.10;;
67164;SDS011;54093;50.014;19.984;2023-11-19T21:27:33;3.40;;;3.10;;
67164;SDS011;54093;50.014;19.984;2023-11-19T21:37:08;5.18;;;4.25;;
67164;SDS011;54093;50.014;19.984;2023-11-19T21:46:33;6.43;;;3.58;;
67164;SDS011;54093;50.014;19.984;2023-11-19T21:55:55;6.28;;;5.22;;
67164;SDS011;54093;50.014;19.984;2023-11-19T22:05:18;8.10;;;3.85;;
67164;SDS011;54093;50.014;19.984;2023-11-19T22:14:41;4.50;;;4.13;;
67164;SDS011;54093;50.014;19.984;2023-11-19T22:24:03;3.60;;;3.30;;
67164;SDS011;54093;50.014;19.984;2023-11-19T22:33:33;3.78;;;3.28;;
67164;SDS011;54093;50.014;19.984;2023-11-19T22:42:58;8.32;;;2.67;;
67164;SDS011;54093;50.014;19.984;2023-11-19T22:52:19;3.47;;;3.13;;
67164;SDS011;54093;50.014;19.984;2023-11-19T23:01:40;4.70;;;2.90;;
67164;SDS011;54093;50.014;19.984;2023-11-19T23:20:42;4.03;;;3.72;;
67164;SDS011;54093;50.014;19.984;2023-11-19T23:30:07;6.60;;;4.00;;
67164;SDS011;54093;50.014;19.984;2023-11-19T23:39:30;6.40;;;4.97;;
67164;SDS011;54093;50.014;19.984;2023-11-19T23:48:52;7.97;;;3.58;;
67164;SDS011;54093;50.014;19.984;2023-11-19T23:58:16;7.95;;;4.25;;
